Hlavní strana
METAR-TAF:

METAR-TAF

Letiště :

Bamako, Mali

zeměpisná šířka: 12-32N, zeměpisná délka: 007-57W, výška: 380 m

Aktuální stav počasí

Zpráva byla vytvořena před 40 minutami, v 07:30 UTC
Jižní vítr 5 kt, proměnlivý mezi jihojihovýchodním a jihozápadním
Teplota 31°C
Vlhkost vzduchu 49%
Tlak 1011 hPa
Viditelnost 10 km a více
Žádná oblačnost pod 1500 m, nevyskytují se cumulonimby.

METAR: GABS 250730Z 19005KT 150V220 CAVOK 31/19 Q1011 NOSIG

Čas: 08:10 (08:10 UTC)

Předpověď počasí

Zpráva byla vytvořena před 3 hodinami a 10 minutami, v 05:00 UTC
Předpověď platná od 25 v 06 UTC do 26 v 12 UTC
Jižní vítr 8 kt
Viditelnost: 8000 m
Skoro jasno ve výšce 3000 ft
Pravděpodobnost 40% :
Dočasný
od 25 v 13 UTC do 25 v 18 UTC
vítr z různých směrů 18 kt s nárazy do 30 kt
Viditelnost: 4000 m
Polojasno ve výšce 3000 ft
Skoro jasno ve výšce 4000 ft, Cumulonimbus.
bouřka, slabý déšť, zvířený prach,

TAF: GABS 250500Z 2506/2612 18008KT 8000 FEW030 PROB40 TEMPO 2513/2518 VRB18G30KT 4000 -TSRA BLDU SCT030 FEW040CB

Stav a předpovědi počasí z více než 4 000 letišť (zprávy METAR a TAF).

Červené a žluté tečky na mapě představují dostupné meteorologické stanice.

Když kurzor umístíte na tečku, zobrazí se název stanice.

Pak kliknutím zobrazíte stav a předpověď počasí.

Chcete-li změnit mapu, kliknutím na zelené tlačítko se znaménkem +mapu přiblížíte, kliknutím na zelené tlačítko se znaménkem – mapu oddálíte a kliknutím na zelené šipky přejdete na sousední mapy.


METAR-TAF: